Time;durP1;ratioP1;P1;durP2;ratioP2;P2;SDS_P1;SDS_P2;PMS_P1;PMS_P2;Temp;Humidity;BMP_temperature;BMP_pressure;BME280_temperature;BME280_humidity;BME280_pressure;Samples;Min_cycle;Max_cycle;Signal;HPM_P1;HPM_P2
2023/11/07 00:02:23;;;;;;;7.43;2.40;;;;;;;13.62;100.00;102813.78;5049133;28;20404;-72
2023/11/07 00:04:49;;;;;;;5.15;2.53;;;;;;;13.88;100.00;102745.72;5049261;28;20041;-74
2023/11/07 00:07:14;;;;;;;12.25;2.70;;;;;;;13.20;100.00;102639.78;5031383;28;20037;-73
2023/11/07 00:09:40;;;;;;;8.40;2.45;;;;;;;13.79;100.00;102689.41;5048741;28;20031;-72
2023/11/07 00:12:06;;;;;;;8.55;2.65;;;;;;;13.58;100.00;102585.41;5049098;28;20039;-73
2023/11/07 00:14:31;;;;;;;11.32;2.28;;;;;;;13.59;100.00;102564.06;5048487;28;20029;-73
2023/11/07 00:16:57;;;;;;;5.60;2.55;;;;;;;13.34;100.00;102602.38;5048878;28;20090;-73
2023/11/07 00:19:24;;;;;;;9.25;2.80;;;;;;;13.21;100.00;102583.56;5048289;28;20067;-71
2023/11/07 00:21:49;;;;;;;8.02;2.30;;;;;;;13.44;100.00;102532.53;5030305;28;20037;-72
2023/11/07 00:24:15;;;;;;;7.47;2.75;;;;;;;13.42;100.00;102427.75;5048880;28;20036;-72
2023/11/07 00:26:40;;;;;;;6.60;2.85;;;;;;;12.98;100.00;102263.41;5048529;28;20047;-71
2023/11/07 00:29:07;;;;;;;7.82;2.42;;;;;;;13.05;100.00;102257.47;5048310;28;20028;-72
2023/11/07 00:31:32;;;;;;;5.65;2.55;;;;;;;13.64;100.00;102311.00;5048606;28;20021;-74
2023/11/07 00:33:58;;;;;;;6.40;2.40;;;;;;;13.49;100.00;102276.09;5048306;28;20687;-73
2023/11/07 00:36:23;;;;;;;6.60;2.75;;;;;;;13.34;100.00;102219.09;5048513;28;20027;-73
2023/11/07 00:38:49;;;;;;;8.70;2.70;;;;;;;13.62;100.00;102262.44;5048699;28;20116;-73
2023/11/07 00:41:14;;;;;;;7.88;2.50;;;;;;;13.22;100.00;102196.97;5048436;28;20050;-73
2023/11/07 00:43:40;;;;;;;8.25;2.40;;;;;;;13.49;100.00;102259.94;5048397;28;20063;-73
2023/11/07 00:46:05;;;;;;;9.15;2.50;;;;;;;13.48;100.00;102230.09;5047955;28;20064;-73
2023/11/07 00:48:31;;;;;;;9.82;2.50;;;;;;;13.38;100.00;102254.84;5048410;28;20479;-73
2023/11/07 00:50:57;;;;;;;7.38;2.42;;;;;;;13.37;100.00;102252.31;5047666;28;20074;-72
2023/11/07 00:53:23;;;;;;;5.75;2.40;;;;;;;13.41;100.00;102262.50;5046166;28;20029;-73
2023/11/07 00:55:49;;;;;;;9.85;2.53;;;;;;;13.34;100.00;102263.38;5047981;28;20029;-74
2023/11/07 00:58:14;;;;;;;6.00;2.33;;;;;;;13.04;100.00;102209.78;5048025;28;20052;-72
2023/11/07 01:00:40;;;;;;;6.90;2.20;;;;;;;13.12;100.00;102283.84;5047936;28;20480;-72
2023/11/07 01:03:05;;;;;;;7.10;2.65;;;;;;;13.20;100.00;102297.47;5046954;28;20116;-73
2023/11/07 01:05:31;;;;;;;7.40;2.47;;;;;;;13.47;100.00;102326.38;5029518;28;20095;-72
2023/11/07 01:07:56;;;;;;;7.57;2.42;;;;;;;13.12;100.00;102288.94;5047972;28;20041;-73
2023/11/07 01:10:22;;;;;;;9.40;2.60;;;;;;;12.64;100.00;102284.66;5029457;28;20411;-73
2023/11/07 01:12:47;;;;;;;10.57;3.10;;;;;;;12.51;100.00;102288.94;5047576;28;20492;-72
2023/11/07 01:15:13;;;;;;;9.63;2.80;;;;;;;12.24;100.00;102252.31;5048091;28;20032;-73
2023/11/07 01:17:38;;;;;;;7.30;2.85;;;;;;;12.65;100.00;102328.09;5047805;28;20096;-72
2023/11/07 01:20:09;;;;;;;8.35;2.92;;;;;;;12.80;100.00;102398.72;5047943;28;20029;-73
2023/11/07 01:22:36;;;;;;;7.38;3.10;;;;;;;12.81;100.00;102433.63;5047909;28;20566;-72
2023/11/07 01:25:01;;;;;;;7.70;3.13;;;;;;;12.62;100.00;102475.22;5047279;28;20033;-71
2023/11/07 01:27:27;;;;;;;8.48;3.22;;;;;;;12.43;100.00;102437.75;5047305;28;20033;-73
2023/11/07 01:29:52;;;;;;;8.82;3.28;;;;;;;12.52;100.00;102491.38;5046527;28;20059;-72
2023/11/07 01:32:19;;;;;;;8.13;3.05;;;;;;;12.96;100.00;102569.84;5047641;28;20507;-72
2023/11/07 01:34:45;;;;;;;7.38;3.25;;;;;;;12.51;100.00;102676.81;5046035;28;20040;-72
2023/11/07 01:37:10;;;;;;;11.40;4.00;;;;;;;12.83;100.00;102754.50;5047336;28;20028;-73
2023/11/07 01:39:36;;;;;;;8.57;3.65;;;;;;;12.78;100.00;102751.03;5046897;28;20048;-73
2023/11/07 01:42:03;;;;;;;9.32;3.78;;;;;;;12.65;100.00;102768.78;5045924;28;20021;-70
2023/11/07 01:44:29;;;;;;;8.27;3.10;;;;;;;12.33;100.00;102747.22;5047413;28;20028;-73
2023/11/07 01:46:56;;;;;;;8.43;3.00;;;;;;;12.88;100.00;102828.56;5045896;28;20048;-72
2023/11/07 01:49:24;;;;;;;7.53;3.00;;;;;;;12.78;100.00;102819.97;5029141;28;20040;-72
2023/11/07 01:51:50;;;;;;;6.78;3.00;;;;;;;12.83;100.00;102853.22;5029566;28;20033;-72
2023/11/07 01:54:16;;;;;;;7.88;2.95;;;;;;;12.73;100.00;102861.63;5047017;28;20533;-72
2023/11/07 01:56:43;;;;;;;9.18;3.05;;;;;;;12.53;100.00;102841.00;5046718;28;20025;-72
2023/11/07 01:59:08;;;;;;;6.95;3.28;;;;;;;12.45;100.00;102803.47;5046976;28;20028;-72
2023/11/07 02:01:36;;;;;;;8.45;3.55;;;;;;;12.55;100.00;102874.19;5045167;28;20037;-73
2023/11/07 02:04:02;;;;;;;7.88;3.20;;;;;;;12.00;100.00;102817.44;5045384;28;20415;-72
2023/11/07 02:06:28;;;;;;;9.00;3.10;;;;;;;11.69;100.00;102797.50;5046220;28;20518;-73
2023/11/07 02:08:55;;;;;;;6.63;2.83;;;;;;;12.20;100.00;102884.84;5046168;28;20036;-71
2023/11/07 02:11:22;;;;;;;7.57;3.00;;;;;;;12.34;100.00;102970.91;5046215;28;20555;-72
2023/11/07 02:13:48;;;;;;;6.78;2.80;;;;;;;12.55;100.00;103019.69;5045707;28;20044;-73
2023/11/07 02:16:14;;;;;;;7.95;3.00;;;;;;;12.17;100.00;102996.19;5029063;28;20033;-72
2023/11/07 02:18:39;;;;;;;7.57;2.90;;;;;;;12.47;100.00;103064.66;5029170;28;20526;-72
2023/11/07 02:21:05;;;;;;;8.25;3.10;;;;;;;12.01;100.00;103012.97;5047492;28;20037;-72
2023/11/07 02:23:34;;;;;;;7.72;3.30;;;;;;;12.52;100.00;103150.66;5049167;28;20476;-72
2023/11/07 02:26:00;;;;;;;7.32;2.92;;;;;;;12.53;100.00;103154.06;5050439;28;20033;-73
2023/11/07 02:28:26;;;;;;;7.70;3.40;;;;;;;11.80;100.00;103090.81;5051074;28;20033;-72
2023/11/07 02:30:51;;;;;;;7.93;3.13;;;;;;;11.96;100.00;103115.72;5051219;28;20414;-72
2023/11/07 02:33:19;;;;;;;6.78;3.30;;;;;;;12.43;100.00;103211.78;5032943;28;20418;-72
2023/11/07 02:35:45;;;;;;;8.18;4.03;;;;;;;12.37;100.00;103223.56;5051128;28;20028;-72
2023/11/07 02:38:12;;;;;;;7.35;3.70;;;;;;;12.41;100.00;103250.84;5031887;28;20078;-71
2023/11/07 02:40:37;;;;;;;9.95;3.92;;;;;;;11.61;100.00;103138.00;5050918;28;20033;-73
2023/11/07 02:43:05;;;;;;;8.60;4.35;;;;;;;11.96;100.00;103231.31;5033130;28;20060;-72
2023/11/07 02:45:31;;;;;;;9.00;3.90;;;;;;;11.82;100.00;103227.69;5049579;28;20475;-72
2023/11/07 02:47:57;;;;;;;10.43;4.18;;;;;;;12.00;100.00;103266.25;5050788;28;20029;-73
2023/11/07 02:50:23;;;;;;;10.55;3.60;;;;;;;12.03;100.00;103344.53;5050797;28;20040;-71
2023/11/07 02:52:49;;;;;;;10.63;4.20;;;;;;;11.77;100.00;103326.13;5049952;28;20029;-72
2023/11/07 02:55:15;;;;;;;10.88;3.90;;;;;;;11.41;100.00;103309.16;5051076;28;20123;-72
2023/11/07 02:57:40;;;;;;;6.53;3.63;;;;;;;11.43;100.00;103345.72;5050414;28;20025;-72
2023/11/07 03:00:10;;;;;;;5.85;3.50;;;;;;;11.56;100.00;103402.09;5032500;28;20060;-72
2023/11/07 03:02:39;;;;;;;11.40;3.72;;;;;;;11.45;100.00;103395.03;5050359;28;20033;-73
2023/11/07 03:05:06;;;;;;;5.93;3.40;;;;;;;10.61;100.00;103307.22;5048932;28;20049;-72
2023/11/07 03:07:34;;;;;;;9.40;4.00;;;;;;;11.30;100.00;103426.09;5049297;28;20548;-73
2023/11/07 03:10:01;;;;;;;8.30;3.17;;;;;;;11.55;100.00;103436.03;5032483;28;20029;-72
2023/11/07 03:12:29;;;;;;;7.35;3.35;;;;;;;11.67;100.00;103466.09;5050033;28;20537;-72
2023/11/07 03:14:58;;;;;;;5.20;2.97;;;;;;;11.78;100.00;103519.09;5031406;28;20035;-72
2023/11/07 03:17:24;;;;;;;7.40;3.63;;;;;;;11.67;100.00;103519.63;5029118;28;20040;-71
2023/11/07 03:19:53;;;;;;;6.80;3.42;;;;;;;11.71;100.00;103522.28;5049871;28;20033;-72
2023/11/07 03:22:20;;;;;;;7.90;3.45;;;;;;;11.71;100.00;103539.25;5050317;28;20029;-72
2023/11/07 03:24:47;;;;;;;6.28;3.45;;;;;;;11.80;100.00;103600.69;5050153;28;20032;-72
2023/11/07 03:27:13;;;;;;;7.15;3.65;;;;;;;11.26;100.00;103524.50;5048307;28;20407;-72
2023/11/07 03:29:38;;;;;;;8.70;3.65;;;;;;;11.50;100.00;103600.72;5049912;28;20124;-73
2023/11/07 03:32:04;;;;;;;14.00;4.07;;;;;;;11.57;100.00;103614.50;5049702;28;20585;-73
2023/11/07 03:34:30;;;;;;;9.23;3.70;;;;;;;11.82;100.00;103662.78;5048897;28;20059;-72
2023/11/07 03:36:55;;;;;;;6.55;3.40;;;;;;;11.75;100.00;103661.75;5049511;28;20112;-72
2023/11/07 03:39:21;;;;;;;6.95;3.47;;;;;;;11.50;100.00;103627.91;5050326;28;20499;-73
2023/11/07 03:41:46;;;;;;;12.93;3.88;;;;;;;11.49;100.00;103644.84;5049651;28;20029;-72
2023/11/07 03:44:12;;;;;;;9.43;3.45;;;;;;;11.59;100.00;103674.88;5049084;28;20029;-72
2023/11/07 03:46:38;;;;;;;11.90;3.92;;;;;;;11.73;100.00;103719.50;5048154;28;20040;-72
2023/11/07 03:49:03;;;;;;;8.98;3.45;;;;;;;11.41;100.00;103689.66;5048158;28;20028;-72
2023/11/07 03:51:29;;;;;;;11.45;3.72;;;;;;;11.57;100.00;103737.69;5049546;28;20031;-71
2023/11/07 03:53:54;;;;;;;7.05;3.97;;;;;;;11.39;100.00;103789.81;5046159;28;20622;-71
2023/11/07 03:56:20;;;;;;;7.07;4.35;;;;;;;11.15;100.00;103810.31;5049211;28;20036;-71
2023/11/07 03:58:46;;;;;;;10.93;4.50;;;;;;;11.34;100.00;103871.22;5048863;28;20036;-71
2023/11/07 04:01:11;;;;;;;12.40;4.28;;;;;;;10.72;100.00;103718.09;5030769;28;20435;-72
2023/11/07 04:03:36;;;;;;;9.88;4.13;;;;;;;11.35;100.00;103835.56;5031200;28;20036;-71
2023/11/07 04:06:02;;;;;;;8.38;4.15;;;;;;;11.11;100.00;103918.00;5049210;28;20044;-74
2023/11/07 04:08:27;;;;;;;8.85;4.18;;;;;;;10.57;100.00;103866.06;5048517;28;20036;-72
2023/11/07 04:10:53;;;;;;;12.10;4.30;;;;;;;11.61;100.00;104029.22;5048993;28;20021;-74
2023/11/07 04:13:19;;;;;;;7.85;4.07;;;;;;;11.34;100.00;104011.34;5049273;28;20048;-74
2023/11/07 04:15:45;;;;;;;9.00;4.22;;;;;;;11.26;100.00;103975.44;5049493;28;20035;-75
2023/11/07 04:18:11;;;;;;;12.13;4.60;;;;;;;11.26;100.00;104002.56;5048584;28;20029;-70
2023/11/07 04:20:37;;;;;;;8.50;3.92;;;;;;;11.51;100.00;104052.72;5049167;28;20032;-73
2023/11/07 04:23:04;;;;;;;8.57;3.85;;;;;;;10.93;100.00;103975.94;5049149;28;20159;-72
2023/11/07 04:25:30;;;;;;;14.90;4.63;;;;;;;10.96;100.00;103989.66;5030876;28;20041;-71
2023/11/07 04:27:56;;;;;;;8.00;4.00;;;;;;;10.73;100.00;103970.16;5047678;28;20054;-73
2023/11/07 04:30:22;;;;;;;11.57;4.43;;;;;;;11.34;100.00;104003.69;5049035;28;20025;-72
2023/11/07 04:32:48;;;;;;;9.25;4.18;;;;;;;11.34;100.00;103996.94;5048240;28;20035;-68
2023/11/07 04:35:13;;;;;;;9.68;4.25;;;;;;;11.37;100.00;104002.94;5047094;28;20060;-71
2023/11/07 04:37:42;;;;;;;8.80;4.15;;;;;;;11.15;100.00;104001.34;5047069;28;20522;-71
2023/11/07 04:40:08;;;;;;;9.38;3.95;;;;;;;11.29;100.00;104020.50;5046321;28;20029;-69
2023/11/07 04:42:34;;;;;;;10.98;4.20;;;;;;;11.32;100.00;104031.69;5029277;28;20062;-71
2023/11/07 04:45:00;;;;;;;10.18;4.05;;;;;;;11.43;100.00;104051.56;5027439;28;20025;-70
2023/11/07 04:47:25;;;;;;;8.73;4.10;;;;;;;11.28;100.00;104032.41;5046727;28;20029;-71
2023/11/07 04:49:51;;;;;;;8.50;3.85;;;;;;;11.51;100.00;104035.72;5046098;28;20040;-70
2023/11/07 04:52:16;;;;;;;8.63;4.32;;;;;;;11.43;100.00;104033.75;5047129;28;20025;-71
2023/11/07 04:54:42;;;;;;;10.07;4.70;;;;;;;11.87;100.00;104076.88;5047185;28;20040;-70
2023/11/07 04:57:07;;;;;;;9.50;4.65;;;;;;;11.48;100.00;104039.84;5029139;28;20029;-70
2023/11/07 04:59:33;;;;;;;12.20;4.80;;;;;;;11.05;100.00;103977.22;5047269;28;20071;-71
2023/11/07 05:01:59;;;;;;;12.77;4.55;;;;;;;11.10;100.00;103995.22;5047549;28;20487;-72
2023/11/07 05:04:25;;;;;;;9.25;4.13;;;;;;;11.32;100.00;103995.13;5047239;28;20067;-73
2023/11/07 05:06:51;;;;;;;13.48;4.57;;;;;;;11.32;100.00;103962.03;5046075;28;20041;-72
2023/11/07 05:09:17;;;;;;;11.65;4.82;;;;;;;11.91;100.00;104060.88;5046673;28;20043;-72
2023/11/07 05:11:43;;;;;;;14.13;4.90;;;;;;;11.75;100.00;104040.78;5029178;28;20100;-71
2023/11/07 05:14:09;;;;;;;12.63;5.40;;;;;;;11.08;100.00;103944.22;5046703;28;20056;-71
2023/11/07 05:16:39;;;;;;;14.30;6.00;;;;;;;11.23;100.00;103936.25;5044729;28;20507;-70
2023/11/07 05:19:07;;;;;;;15.18;7.82;;;;;;;11.73;100.00;104043.28;5045719;28;20488;-70
2023/11/07 05:21:33;;;;;;;16.10;7.57;;;;;;;11.33;100.00;103981.56;5046750;28;20040;-71
2023/11/07 05:23:59;;;;;;;16.33;8.00;;;;;;;11.70;100.00;104058.50;5046859;28;20033;-74
2023/11/07 05:26:25;;;;;;;15.68;6.47;;;;;;;11.35;100.00;104006.28;5044398;28;20048;-72
2023/11/07 05:28:50;;;;;;;16.55;8.50;;;;;;;11.91;100.00;104066.84;5026287;28;20029;-72
2023/11/07 05:31:16;;;;;;;13.85;7.43;;;;;;;12.29;100.00;104108.03;5046963;28;20134;-71
2023/11/07 05:33:45;;;;;;;18.58;7.55;;;;;;;13.42;100.00;104145.53;5047381;28;20029;-72
2023/11/07 05:36:11;;;;;;;15.68;7.05;;;;;;;13.99;100.00;104197.38;5047505;28;20629;-72
2023/11/07 05:38:36;;;;;;;20.80;8.48;;;;;;;14.97;100.00;104321.97;5047486;28;20032;-73
2023/11/07 05:41:02;;;;;;;19.90;6.50;;;;;;;13.10;100.00;104153.97;5045481;28;20041;-72
2023/11/07 05:43:27;;;;;;;13.60;5.70;;;;;;;14.50;100.00;104290.91;5047211;28;20104;-77
2023/11/07 05:45:53;;;;;;;10.80;4.53;;;;;;;16.71;100.00;104373.63;5048343;28;20036;-72
2023/11/07 05:48:24;;;;;;;8.75;4.72;;;;;;;16.78;100.00;104344.59;5029455;28;20112;-73
2023/11/07 05:50:50;;;;;;;14.93;4.60;;;;;;;17.50;100.00;104289.94;5045339;28;20119;-75
2023/11/07 05:53:16;;;;;;;9.90;4.45;;;;;;;18.79;100.00;104228.56;5047662;28;20036;-73
2023/11/07 05:55:41;;;;;;;11.68;4.82;;;;;;;18.68;100.00;103853.69;5048192;28;20488;-74
2023/11/07 05:58:07;;;;;;;10.13;4.50;;;;;;;18.50;100.00;103614.78;5029538;28;20419;-73
2023/11/07 06:00:33;;;;;;;11.07;4.32;;;;;;;18.78;100.00;103500.38;5047382;28;20107;-74
2023/11/07 06:02:59;;;;;;;11.52;4.72;;;;;;;15.66;100.00;103157.81;5047162;28;20044;-73
2023/11/07 06:05:24;;;;;;;21.88;5.10;;;;;;;16.22;100.00;103239.19;5046760;28;20068;-77
2023/11/07 06:07:55;;;;;;;12.88;5.65;;;;;;;19.38;100.00;103346.00;5047170;28;20045;-72
2023/11/07 06:10:21;;;;;;;10.90;4.95;;;;;;;18.99;100.00;103035.13;5047177;28;20106;-73
2023/11/07 06:12:47;;;;;;;19.55;5.45;;;;;;;20.55;100.00;103016.13;5030307;28;20033;-73
2023/11/07 06:15:13;;;;;;;16.00;6.45;;;;;;;17.32;100.00;103136.22;5046539;28;20052;-73
2023/11/07 06:17:38;;;;;;;20.45;8.05;;;;;;;15.34;100.00;103286.75;5029428;28;20530;-72
2023/11/07 06:20:04;;;;;;;21.50;7.22;;;;;;;13.87;100.00;103184.78;5029706;28;20106;-74
2023/11/07 06:22:29;;;;;;;14.57;5.20;;;;;;;13.26;100.00;103085.28;5047095;28;20037;-73
2023/11/07 06:24:55;;;;;;;10.35;4.50;;;;;;;13.59;100.00;103226.25;5030286;28;20053;-74
2023/11/07 06:27:20;;;;;;;13.80;4.80;;;;;;;13.18;100.00;103127.78;5046791;28;20029;-73
2023/11/07 06:29:48;;;;;;;10.15;3.80;;;;;;;13.81;100.00;103171.94;5047628;28;20032;-73
2023/11/07 06:32:14;;;;;;;11.70;3.97;;;;;;;18.16;100.00;103319.44;5047453;28;20025;-72
2023/11/07 06:34:40;;;;;;;10.85;3.97;;;;;;;15.82;100.00;103096.28;5045916;28;20392;-73
2023/11/07 06:37:07;;;;;;;10.18;4.30;;;;;;;14.00;100.00;103057.88;5047273;28;20029;-74
2023/11/07 06:39:33;;;;;;;9.93;5.07;;;;;;;13.78;100.00;103097.75;5030148;28;20056;-73
2023/11/07 06:41:59;;;;;;;10.48;4.28;;;;;;;13.76;100.00;103119.03;5047525;28;20112;-74
2023/11/07 06:44:25;;;;;;;13.20;5.10;;;;;;;13.80;100.00;103084.97;5047663;28;20052;-73
2023/11/07 06:46:51;;;;;;;15.15;6.65;;;;;;;13.82;100.00;103029.56;5047501;28;20037;-73
2023/11/07 06:49:18;;;;;;;15.18;7.07;;;;;;;14.50;100.00;103077.00;5047125;28;20033;-74
2023/11/07 06:51:43;;;;;;;18.23;8.52;;;;;;;14.65;100.00;103033.56;5047097;28;20541;-74
2023/11/07 06:54:09;;;;;;;20.58;8.57;;;;;;;14.96;100.00;103057.56;5045943;28;20040;-74
2023/11/07 06:56:34;;;;;;;17.98;9.48;;;;;;;14.25;100.00;102930.91;5047045;28;20083;-73
2023/11/07 06:59:00;;;;;;;16.75;8.93;;;;;;;14.71;100.00;102989.16;5047126;28;20025;-73
2023/11/07 07:01:28;;;;;;;13.38;7.57;;;;;;;14.95;100.00;103031.94;5047319;28;20033;-73
2023/11/07 07:03:54;;;;;;;15.75;7.60;;;;;;;15.44;100.00;103083.38;5029109;28;20037;-74
2023/11/07 07:06:21;;;;;;;12.15;6.03;;;;;;;15.08;100.00;103011.47;5046811;28;20053;-74
2023/11/07 07:08:47;;;;;;;17.25;5.97;;;;;;;14.66;100.00;103032.69;5048793;28;20037;-74
2023/11/07 07:11:13;;;;;;;14.25;5.57;;;;;;;14.97;100.00;103071.25;5050678;28;20057;-72
2023/11/07 07:13:39;;;;;;;12.48;4.95;;;;;;;15.21;100.00;103063.66;5050784;28;20487;-73
2023/11/07 07:16:05;;;;;;;15.88;5.85;;;;;;;15.35;100.00;103067.09;5051298;28;20526;-73
2023/11/07 07:18:31;;;;;;;15.40;7.00;;;;;;;15.00;100.00;103049.03;5033164;28;20032;-73
2023/11/07 07:20:57;;;;;;;13.70;5.55;;;;;;;15.01;100.00;103050.78;5050215;28;20044;-74
2023/11/07 07:23:24;;;;;;;12.88;6.03;;;;;;;14.36;100.00;102983.88;5051480;28;20044;-74
2023/11/07 07:25:51;;;;;;;14.70;5.28;;;;;;;14.98;100.00;103029.38;5050920;28;20028;-74
2023/11/07 07:28:19;;;;;;;6.80;2.97;;;;;;;14.39;100.00;103027.44;5050834;28;20036;-76
2023/11/07 07:30:45;;;;;;;8.52;3.15;;;;;;;14.45;100.00;103057.34;5050762;28;20029;-75
2023/11/07 07:33:11;;;;;;;8.80;2.92;;;;;;;15.45;100.00;103123.56;5049114;28;20021;-74
2023/11/07 07:35:37;;;;;;;17.88;7.00;;;;;;;15.28;100.00;103112.38;5032581;28;20059;-75
2023/11/07 07:38:03;;;;;;;18.48;7.90;;;;;;;15.68;100.00;103139.00;5051136;28;20484;-74
2023/11/07 07:40:30;;;;;;;12.95;5.00;;;;;;;15.56;100.00;103074.84;5051010;28;20040;-74
2023/11/07 07:43:08;;;;;;;9.73;3.90;;;;;;;16.02;100.00;103117.66;5050866;28;20036;-74
2023/11/07 07:45:34;;;;;;;15.98;4.78;;;;;;;15.93;100.00;103101.38;5050230;28;20055;-73
2023/11/07 07:48:02;;;;;;;9.05;3.10;;;;;;;16.23;100.00;103117.66;5050561;28;20032;-73
2023/11/07 07:50:30;;;;;;;9.82;3.40;;;;;;;16.20;100.00;103044.91;5050714;28;20052;-74
2023/11/07 07:52:56;;;;;;;11.63;3.83;;;;;;;16.47;100.00;103091.94;5049471;28;20033;-76
2023/11/07 07:55:22;;;;;;;9.15;3.72;;;;;;;15.40;100.00;103032.06;5050400;28;20048;-74
2023/11/07 07:57:47;;;;;;;13.48;3.67;;;;;;;15.30;100.00;103015.81;5050091;28;20458;-75
2023/11/07 08:00:14;;;;;;;10.65;4.07;;;;;;;15.75;100.00;103003.91;5050319;28;20392;-76
2023/11/07 08:02:40;;;;;;;10.80;3.78;;;;;;;16.47;100.00;103067.97;5050423;28;20032;-77
2023/11/07 08:05:06;;;;;;;12.23;4.35;;;;;;;16.01;100.00;103018.41;5050609;28;20049;-77
2023/11/07 08:07:35;;;;;;;13.45;4.55;;;;;;;16.56;100.00;103046.56;5050996;28;20040;-77
2023/11/07 08:10:01;;;;;;;10.05;4.30;;;;;;;16.23;100.00;102957.59;5046329;28;20185;-76
2023/11/07 08:12:27;;;;;;;15.82;5.82;;;;;;;16.52;100.00;103011.47;5050263;28;20052;-76
2023/11/07 08:14:53;;;;;;;17.13;6.95;;;;;;;16.05;100.00;102932.84;5050248;28;20059;-74
2023/11/07 08:17:18;;;;;;;17.23;7.82;;;;;;;15.95;100.00;102907.19;5050159;28;20029;-78
2023/11/07 08:19:46;;;;;;;12.38;6.18;;;;;;;16.71;100.00;102944.56;5049880;28;20084;-74
2023/11/07 08:22:11;;;;;;;12.13;4.28;;;;;;;16.37;100.00;102923.31;5049708;28;20059;-76
2023/11/07 08:24:38;;;;;;;10.35;3.63;;;;;;;16.71;100.00;102989.97;5050299;28;20479;-76
2023/11/07 08:27:03;;;;;;;8.98;3.30;;;;;;;16.75;100.00;102958.25;5049817;28;20025;-75
2023/11/07 08:29:29;;;;;;;6.05;3.20;;;;;;;17.57;100.00;103040.91;5050763;28;20120;-77
2023/11/07 08:31:54;;;;;;;10.02;3.00;;;;;;;17.62;100.00;103032.28;5050620;28;20545;-77
2023/11/07 08:34:22;;;;;;;12.13;3.13;;;;;;;17.99;100.00;103095.47;5050520;28;20033;-76
2023/11/07 08:36:48;;;;;;;9.48;2.60;;;;;;;18.04;100.00;103172.69;5031068;28;20021;-76
2023/11/07 08:39:24;;;;;;;11.35;3.10;;;;;;;18.28;100.00;103206.00;5049923;28;20043;-77
2023/11/07 08:41:51;;;;;;;6.30;2.67;;;;;;;17.76;100.00;103156.59;5049314;28;20068;-77
2023/11/07 08:44:19;;;;;;;8.50;2.40;;;;;;;17.78;100.00;103172.88;5047766;28;20033;-76
2023/11/07 08:46:44;;;;;;;9.23;3.10;;;;;;;18.36;100.00;103262.63;5050050;28;20036;-75
2023/11/07 08:49:10;;;;;;;7.95;2.60;;;;;;;18.16;100.00;103386.41;5049642;28;20033;-72
2023/11/07 08:51:35;;;;;;;8.73;2.50;;;;;;;18.32;100.00;103526.34;5049878;28;20029;-75
2023/11/07 08:54:01;;;;;;;6.22;2.38;;;;;;;18.53;100.00;103751.44;5050269;28;20029;-76
2023/11/07 08:56:26;;;;;;;7.97;2.67;;;;;;;19.27;100.00;104362.19;5049545;28;20096;-77
2023/11/07 08:58:52;;;;;;;11.65;2.72;;;;;;;19.21;100.00;104350.09;5031713;28;20030;-74
2023/11/07 09:01:18;;;;;;;9.68;3.33;;;;;;;18.78;100.00;104333.44;5049580;28;20040;-77
2023/11/07 09:03:45;;;;;;;8.45;3.25;;;;;;;18.90;100.00;104325.78;5032098;28;20059;-77
2023/11/07 09:06:10;;;;;;;8.90;2.63;;;;;;;19.18;100.00;104313.06;5049003;28;20120;-75
2023/11/07 09:08:36;;;;;;;5.63;1.88;;;;;;;19.37;100.00;104217.69;5048944;28;20112;-75
2023/11/07 09:11:01;;;;;;;7.68;2.35;;;;;;;19.93;100.00;104129.97;5049658;28;20037;-76
2023/11/07 09:13:29;;;;;;;4.82;2.00;;;;;;;19.89;100.00;104050.72;5049319;28;20503;-74
2023/11/07 09:15:55;;;;;;;5.07;1.95;;;;;;;19.58;100.00;103894.09;5045921;28;20032;-74
2023/11/07 09:18:21;;;;;;;9.73;2.20;;;;;;;19.37;100.00;103835.59;5048051;28;20415;-74
2023/11/07 09:20:47;;;;;;;8.48;1.67;;;;;;;19.62;100.00;103759.78;5048241;28;20029;-74
2023/11/07 09:23:12;;;;;;;9.40;2.35;;;;;;;20.02;100.00;103666.53;5048016;28;20112;-74
2023/11/07 09:25:38;;;;;;;8.02;2.17;;;;;;;20.17;100.00;103609.53;5048055;28;20078;-73
2023/11/07 09:28:03;;;;;;;5.60;1.75;;;;;;;20.72;100.00;103569.31;5046394;28;20095;-73
2023/11/07 09:30:29;;;;;;;5.55;1.77;;;;;;;20.16;100.00;103320.97;5046457;28;20051;-73
2023/11/07 09:32:56;;;;;;;5.38;1.27;;;;;;;20.39;100.00;103107.78;5046208;28;20071;-73
2023/11/07 09:35:23;;;;;;;5.30;1.40;;;;;;;20.41;100.00;102209.03;5048196;28;20033;-74
2023/11/07 09:37:49;;;;;;;4.90;1.52;;;;;;;20.39;100.00;102104.00;5047716;28;20458;-73
2023/11/07 09:40:19;;;;;;;5.50;1.20;;;;;;;20.21;100.00;102037.44;5047463;28;20083;-73
2023/11/07 09:42:48;;;;;;;6.82;1.38;;;;;;;20.93;100.00;102080.53;5047375;28;20025;-72
2023/11/07 09:45:15;;;;;;;4.38;1.40;;;;;;;20.49;100.00;101977.00;5047633;28;20039;-73
2023/11/07 09:47:48;;;;;;;2.95;1.20;;;;;;;20.99;100.00;102007.84;5030018;28;20090;-73
2023/11/07 09:50:22;;;;;;;5.35;1.50;;;;;;;20.83;100.00;101942.94;5047452;28;20029;-73
2023/11/07 09:52:50;;;;;;;7.70;1.95;;;;;;;20.86;100.00;101967.84;5047599;28;20032;-71
2023/11/07 09:55:16;;;;;;;10.57;1.73;;;;;;;20.68;100.00;101928.00;5029269;28;20485;-77
2023/11/07 09:57:47;;;;;;;8.77;1.83;;;;;;;20.85;100.00;101954.06;5048058;28;20044;-75
2023/11/07 10:00:18;;;;;;;6.97;1.73;;;;;;;21.24;100.00;101964.63;5046804;28;20483;-72
2023/11/07 10:02:44;;;;;;;8.02;2.00;;;;;;;21.06;100.00;101919.63;5046349;28;20024;-71
2023/11/07 10:05:11;;;;;;;5.53;2.50;;;;;;;21.17;100.00;101911.44;5047782;28;20053;-75
2023/11/07 10:07:36;;;;;;;9.13;2.83;;;;;;;21.46;100.00;101953.34;5029394;28;20033;-71
2023/11/07 10:10:05;;;;;;;11.88;2.00;;;;;;;20.74;100.00;101851.03;5029648;28;20539;-72
2023/11/07 10:12:34;;;;;;;10.23;1.80;;;;;;;21.16;100.00;101943.38;5029045;28;20112;-73
2023/11/07 10:15:17;;;;;;;8.25;1.90;;;;;;;20.90;100.00;101897.81;5045202;28;20029;-72
2023/11/07 10:17:58;;;;;;;13.75;1.83;;;;;;;21.45;100.00;101954.22;4696929;28;9999876;-73
2023/11/07 10:20:25;;;;;;;5.97;1.40;;;;;;;21.27;100.00;101936.03;5024104;28;20041;-72
2023/11/07 10:22:50;;;;;;;5.18;1.55;;;;;;;21.52;100.00;101940.16;5043676;28;20059;-74
2023/11/07 10:25:29;;;;;;;8.07;2.08;;;;;;;21.83;100.00;101918.97;5025195;28;20779;-72
2023/11/07 10:27:59;;;;;;;6.40;1.60;;;;;;;21.84;100.00;101897.38;5042198;28;20044;-72
2023/11/07 10:30:36;;;;;;;8.18;2.05;;;;;;;22.05;100.00;101908.50;5043112;28;20037;-71
2023/11/07 10:33:06;;;;;;;8.07;1.67;;;;;;;21.85;100.00;101890.44;5043230;28;20102;-71
2023/11/07 10:35:32;;;;;;;8.77;2.38;;;;;;;21.93;100.00;101863.25;5043343;28;20044;-71
2023/11/07 10:37:58;;;;;;;9.82;1.90;;;;;;;21.73;100.00;101884.00;5043005;28;20033;-70
2023/11/07 10:40:23;;;;;;;8.57;2.15;;;;;;;21.77;100.00;101823.38;5041162;28;20048;-72
2023/11/07 10:42:49;;;;;;;10.98;2.00;;;;;;;21.55;100.00;101805.38;5026404;28;20037;-72
2023/11/07 10:45:15;;;;;;;7.55;1.75;;;;;;;22.12;100.00;101882.28;5046663;28;20027;-73
2023/11/07 10:47:43;;;;;;;10.40;2.10;;;;;;;22.21;100.00;101837.78;5029447;28;20033;-71
2023/11/07 10:50:13;;;;;;;10.95;1.80;;;;;;;22.09;100.00;101822.81;5050598;28;20037;-71
2023/11/07 10:52:39;;;;;;;11.30;2.33;;;;;;;22.28;100.00;101833.16;5048936;28;20108;-71
2023/11/07 10:55:05;;;;;;;12.65;2.30;;;;;;;22.23;100.00;101861.03;5032697;28;20037;-72
2023/11/07 10:57:33;;;;;;;12.10;2.20;;;;;;;22.25;100.00;101878.22;5049356;28;20064;-72
2023/11/07 11:00:12;;;;;;;8.73;2.10;;;;;;;22.53;100.00;101888.16;5049651;28;20547;-71
2023/11/07 11:02:44;;;;;;;10.75;2.00;;;;;;;22.06;100.00;101820.38;5050774;28;20112;-72
2023/11/07 11:05:13;;;;;;;7.90;1.95;;;;;;;22.07;100.00;101809.06;5050373;28;20037;-72
2023/11/07 11:07:49;;;;;;;9.90;1.90;;;;;;;22.21;100.00;101816.19;5049170;28;20119;-72
2023/11/07 11:10:16;;;;;;;10.93;2.03;;;;;;;22.49;100.00;101858.06;5049200;28;20108;-71
2023/11/07 11:12:43;;;;;;;10.68;2.08;;;;;;;22.64;100.00;101857.38;5050067;28;20029;-71